createdAt,value
2022-10-13T00:18:08.304Z,93.8
2022-10-13T00:38:08.441Z,92.9
2022-10-13T00:58:08.241Z,92.8
2022-10-13T01:18:08.226Z,93.9
2022-10-13T01:38:08.174Z,94.9
2022-10-13T01:58:08.182Z,95
2022-10-13T02:18:15.111Z,94.5
2022-10-13T02:38:08.147Z,94.3
2022-10-13T02:58:08.091Z,95
2022-10-13T03:18:08.008Z,94.6
2022-10-13T03:38:08.048Z,95.4
2022-10-13T03:58:08.114Z,95.3
2022-10-13T04:38:07.915Z,96.3
2022-10-13T04:58:07.866Z,96.4
2022-10-13T05:38:07.772Z,96.7
2022-10-13T05:58:07.750Z,96.8
2022-10-13T06:18:07.750Z,96.6
2022-10-13T06:38:07.703Z,96.9
2022-10-13T06:58:07.698Z,96.7
2022-10-13T07:18:14.653Z,95.9
2022-10-13T07:38:07.605Z,94.6
2022-10-13T07:58:07.542Z,86
2022-10-13T08:18:07.601Z,87.1
2022-10-13T08:38:14.490Z,79.8
2022-10-13T08:58:14.437Z,79.9
2022-10-13T09:18:07.364Z,79.7
2022-10-13T09:38:07.311Z,81.6
2022-10-13T10:18:14.222Z,67.1
2022-10-13T10:38:07.205Z,72.1
2022-10-13T10:58:14.124Z,70.7
2022-10-13T11:18:16.459Z,67.7
2022-10-13T11:38:08.092Z,67.8
2022-10-13T12:18:06.955Z,71.6
2022-10-13T12:38:13.885Z,71.4
2022-10-13T12:58:13.854Z,72.7
2022-10-13T13:18:06.787Z,72.6
2022-10-13T13:38:06.744Z,70.8
2022-10-13T13:58:13.702Z,71.4
2022-10-13T14:18:06.657Z,65.3
2022-10-13T14:38:13.615Z,67.8
2022-10-13T14:58:13.571Z,68.2
2022-10-13T15:18:13.520Z,70.5
2022-10-13T15:58:10.019Z,79.7
2022-10-13T16:18:06.392Z,83.4
2022-10-13T16:38:20.335Z,85.4
2022-10-13T16:58:20.287Z,87.1
2022-10-13T17:38:13.195Z,90.2
2022-10-13T17:58:06.154Z,89.5
2022-10-13T18:38:06.153Z,91.8
2022-10-13T18:58:06.128Z,93.9
2022-10-13T19:18:05.994Z,94.4
2022-10-13T19:38:05.967Z,95.5
2022-10-13T19:58:19.931Z,96.2
2022-10-13T20:18:05.905Z,96.2
2022-10-13T20:38:12.858Z,96.2
2022-10-13T20:58:12.794Z,96.3
2022-10-13T21:18:05.768Z,96.2
2022-10-13T21:38:05.764Z,96.4
2022-10-13T21:58:05.684Z,96
2022-10-13T22:18:05.639Z,96
2022-10-13T22:38:05.643Z,96.3
2022-10-13T23:18:12.555Z,95.8
2022-10-13T23:38:05.495Z,95.7
2022-10-13T23:58:05.440Z,95
